Time;durP1;ratioP1;P1;durP2;ratioP2;P2;SDS_P1;SDS_P2;PMS_P1;PMS_P2;Temp;Humidity;BMP_temperature;BMP_pressure;BME280_temperature;BME280_humidity;BME280_pressure;Samples;Min_cycle;Max_cycle;Signal;HPM_P1;HPM_P2
2023/11/19 00:01:42;;;;;;;8.40;4.13;;;;;;;6.14;79.07;93028.31;2071915;69;20164;-81
2023/11/19 00:04:11;;;;;;;7.70;4.28;;;;;;;6.07;79.51;93023.50;2068036;69;20148;-81
2023/11/19 00:06:37;;;;;;;7.95;4.38;;;;;;;6.10;79.09;93011.94;2068278;69;20145;-81
2023/11/19 00:09:08;;;;;;;4.32;2.65;;;;;;;6.08;79.00;93005.41;2071736;69;20172;-82
2023/11/19 00:11:33;;;;;;;6.90;3.33;;;;;;;6.16;79.11;93020.06;2068095;69;20156;-82
2023/11/19 00:14:01;;;;;;;4.72;2.10;;;;;;;6.07;80.16;92990.72;2071308;69;20241;-80
2023/11/19 00:16:32;;;;;;;3.97;2.10;;;;;;;5.98;81.14;93004.59;2065487;69;20166;-81
2023/11/19 00:18:59;;;;;;;4.03;2.30;;;;;;;5.92;81.10;92990.13;2071351;69;20156;-81
2023/11/19 00:21:28;;;;;;;3.70;2.08;;;;;;;6.11;80.34;92999.44;2067644;69;20184;-80
2023/11/19 00:23:57;;;;;;;5.72;2.10;;;;;;;6.06;81.18;92994.81;2071451;69;20164;-80
2023/11/19 00:26:23;;;;;;;3.78;2.35;;;;;;;5.87;81.72;92991.81;2071166;69;20520;-80
2023/11/19 00:28:52;;;;;;;7.30;2.60;;;;;;;5.93;81.39;92980.44;2071299;69;20144;-81
2023/11/19 00:31:19;;;;;;;4.28;2.30;;;;;;;6.11;80.99;92979.88;2068231;69;20608;-79
2023/11/19 00:34:12;;;;;;;6.25;2.00;;;;;;;6.18;80.78;92992.25;2068402;69;20148;-81
2023/11/19 00:36:42;;;;;;;3.17;2.00;;;;;;;6.11;80.81;92987.50;2062258;69;20684;-81
2023/11/19 00:39:08;;;;;;;2.97;1.80;;;;;;;6.26;80.70;92978.22;2064584;69;20232;-80
2023/11/19 00:41:35;;;;;;;2.53;1.60;;;;;;;6.10;80.74;92941.31;2068133;69;20194;-80
2023/11/19 00:44:04;;;;;;;2.70;1.48;;;;;;;5.91;81.08;92916.72;2064897;69;20156;-81
2023/11/19 00:46:32;;;;;;;2.25;1.60;;;;;;;6.20;80.53;92936.53;2068144;69;20144;-79
2023/11/19 00:49:00;;;;;;;2.00;1.33;;;;;;;6.23;79.78;92932.59;2064735;69;20587;-79
2023/11/19 00:51:31;;;;;;;2.17;1.30;;;;;;;6.27;80.27;92932.88;2068115;69;20244;-81
2023/11/19 00:53:59;;;;;;;3.33;1.50;;;;;;;6.08;81.61;92939.06;2064310;69;20217;-80
2023/11/19 00:56:24;;;;;;;4.18;1.30;;;;;;;6.27;80.67;92932.88;2067427;69;20251;-81
2023/11/19 00:58:50;;;;;;;3.60;1.50;;;;;;;6.32;80.13;92931.16;2064832;69;20136;-79
2023/11/19 01:01:17;;;;;;;3.95;1.70;;;;;;;6.35;79.41;92930.00;2064392;69;20163;-79
2023/11/19 01:03:43;;;;;;;2.65;1.15;;;;;;;6.34;80.10;92920.16;2061662;69;20176;-80
2023/11/19 01:06:09;;;;;;;2.75;1.30;;;;;;;6.29;80.54;92918.34;2068238;69;20580;-79
2023/11/19 01:08:36;;;;;;;2.13;1.42;;;;;;;6.19;80.93;92906.38;2068088;69;20640;-81
2023/11/19 01:11:02;;;;;;;3.10;1.38;;;;;;;6.06;80.75;92887.88;2064596;69;20299;-79
2023/11/19 01:13:28;;;;;;;1.08;0.80;;;;;;;6.00;82.47;92870.59;2064765;69;20561;-79
2023/11/19 01:15:56;;;;;;;2.22;1.10;;;;;;;6.23;81.23;92896.25;2068120;69;20171;-80
2023/11/19 01:18:22;;;;;;;3.53;1.30;;;;;;;6.25;80.62;92896.41;2067612;69;20238;-80
2023/11/19 01:20:47;;;;;;;1.13;0.93;;;;;;;6.11;81.11;92892.47;2064747;69;20643;-79
2023/11/19 01:23:13;;;;;;;1.50;1.15;;;;;;;5.93;82.86;92907.78;2061958;69;20239;-81
2023/11/19 01:25:39;;;;;;;3.42;1.27;;;;;;;6.21;81.57;92918.44;2067901;69;20231;-80
2023/11/19 01:28:05;;;;;;;2.88;1.33;;;;;;;6.30;81.23;92928.22;2064728;69;20139;-80
2023/11/19 01:30:31;;;;;;;3.65;1.10;;;;;;;6.19;81.11;92900.78;2067963;69;20228;-81
2023/11/19 01:32:56;;;;;;;2.33;1.00;;;;;;;6.13;80.91;92864.66;2067769;69;20587;-81
2023/11/19 01:35:23;;;;;;;4.97;1.50;;;;;;;5.83;83.02;92876.94;2067961;69;20190;-82
2023/11/19 01:37:50;;;;;;;3.67;1.70;;;;;;;6.07;81.90;92867.00;2063919;69;20169;-81
2023/11/19 01:40:20;;;;;;;3.22;1.70;;;;;;;6.10;82.17;92866.59;2067744;69;20678;-81
2023/11/19 01:42:46;;;;;;;2.83;1.70;;;;;;;6.16;81.67;92860.00;2068550;69;20171;-81
2023/11/19 01:45:27;;;;;;;3.13;1.63;;;;;;;6.19;81.75;92853.25;2065169;69;20145;-81
2023/11/19 01:47:55;;;;;;;2.63;1.60;;;;;;;6.16;81.55;92868.38;2068090;69;20287;-81
2023/11/19 01:50:24;;;;;;;2.28;1.42;;;;;;;6.21;81.03;92865.31;2068572;69;20145;-81
2023/11/19 01:52:54;;;;;;;1.90;1.48;;;;;;;6.18;80.52;92829.38;2068633;69;20156;-81
2023/11/19 01:55:22;;;;;;;2.70;1.48;;;;;;;6.12;80.62;92815.69;2065455;69;20140;-81
2023/11/19 01:57:52;;;;;;;3.15;1.45;;;;;;;6.30;80.59;92825.50;2068549;69;20152;-80
2023/11/19 02:00:19;;;;;;;2.47;1.40;;;;;;;6.09;81.69;92833.59;2068548;69;20144;-81
2023/11/19 02:02:52;;;;;;;2.35;1.50;;;;;;;5.96;82.41;92817.94;2068736;69;20197;-79
2023/11/19 02:05:24;;;;;;;2.63;1.65;;;;;;;6.08;81.68;92830.06;2068555;69;20778;-81
2023/11/19 02:07:51;;;;;;;3.65;2.00;;;;;;;6.12;81.70;92835.25;2065363;69;20133;-81
2023/11/19 02:10:27;;;;;;;5.13;2.00;;;;;;;6.08;81.79;92799.31;2068800;69;20596;-80
2023/11/19 02:12:55;;;;;;;3.58;1.65;;;;;;;6.13;81.47;92819.94;2062763;69;20140;-81
2023/11/19 02:15:24;;;;;;;4.47;1.73;;;;;;;6.21;81.25;92840.16;2065227;69;20136;-80
2023/11/19 02:17:54;;;;;;;2.33;1.80;;;;;;;5.96;82.31;92836.78;2068642;69;20143;-81
2023/11/19 02:20:21;;;;;;;4.22;1.90;;;;;;;5.62;84.85;92818.69;2064495;69;20140;-82
2023/11/19 02:22:50;;;;;;;5.55;2.03;;;;;;;5.76;84.69;92816.28;2064847;69;20608;-81
2023/11/19 02:25:29;;;;;;;3.58;1.70;;;;;;;5.91;83.65;92787.41;2064953;69;20603;-81
2023/11/19 02:27:59;;;;;;;2.88;2.05;;;;;;;5.86;84.35;92798.31;2065308;69;20555;-81
2023/11/19 02:30:28;;;;;;;2.47;1.85;;;;;;;6.06;84.34;92806.81;2061883;69;20141;-81
2023/11/19 02:33:05;;;;;;;2.45;1.70;;;;;;;5.99;83.38;92796.47;2064396;69;20145;-82
2023/11/19 02:35:34;;;;;;;3.63;1.80;;;;;;;6.14;82.50;92785.09;2064487;69;20141;-80
2023/11/19 02:38:01;;;;;;;3.85;1.73;;;;;;;6.18;80.56;92777.00;2065161;69;20229;-80
2023/11/19 02:40:27;;;;;;;3.95;2.20;;;;;;;6.33;81.03;92799.19;2064361;69;20136;-80
2023/11/19 02:42:55;;;;;;;3.13;1.98;;;;;;;6.32;81.36;92794.91;2064310;69;20217;-80
2023/11/19 02:45:30;;;;;;;4.03;2.38;;;;;;;5.80;83.23;92753.09;2061851;69;20173;-80
2023/11/19 02:47:57;;;;;;;3.50;2.50;;;;;;;6.21;82.94;92800.28;2064474;69;20618;-80
2023/11/19 02:50:26;;;;;;;3.22;2.15;;;;;;;6.35;81.01;92804.19;2064767;69;20136;-80
2023/11/19 02:52:56;;;;;;;5.38;2.45;;;;;;;5.52;85.32;92789.94;2064600;69;20240;-82
2023/11/19 02:55:23;;;;;;;4.63;2.33;;;;;;;5.97;84.28;92793.53;2064426;69;20140;-81
2023/11/19 02:58:04;;;;;;;4.72;2.22;;;;;;;6.13;83.51;92788.47;2065537;69;20151;-81
2023/11/19 03:00:47;;;;;;;3.40;2.58;;;;;;;6.25;82.41;92787.34;2055686;69;20284;-81
2023/11/19 03:03:22;;;;;;;3.45;2.25;;;;;;;5.96;84.29;92806.78;2064596;69;20157;-80
2023/11/19 03:05:48;;;;;;;2.75;2.10;;;;;;;5.81;84.61;92790.88;2065083;69;20239;-81
2023/11/19 03:08:15;;;;;;;2.83;1.98;;;;;;;6.06;83.48;92807.56;2064930;69;20149;-81
2023/11/19 03:10:41;;;;;;;3.40;1.92;;;;;;;6.31;82.24;92798.28;2064335;69;20177;-80
2023/11/19 03:13:16;;;;;;;3.95;2.17;;;;;;;6.36;82.28;92797.25;2064462;69;20330;-80
2023/11/19 03:15:44;;;;;;;2.95;1.70;;;;;;;6.34;82.07;92799.91;2064846;69;20149;-81
2023/11/19 03:18:09;;;;;;;4.65;1.50;;;;;;;6.36;81.97;92809.19;2064768;69;20255;-80
2023/11/19 03:20:38;;;;;;;4.45;1.80;;;;;;;6.18;82.96;92791.00;2064246;69;20810;-80
2023/11/19 03:23:05;;;;;;;3.35;2.20;;;;;;;5.94;84.27;92787.03;2064370;69;20185;-80
2023/11/19 03:25:49;;;;;;;4.05;2.30;;;;;;;6.11;83.50;92786.25;2065162;69;20149;-80
2023/11/19 03:28:16;;;;;;;5.63;2.20;;;;;;;6.15;83.82;92778.19;2065620;69;20211;-80
2023/11/19 03:30:42;;;;;;;4.45;2.30;;;;;;;5.66;85.34;92765.22;2065211;69;20176;-81
2023/11/19 03:33:07;;;;;;;4.07;2.25;;;;;;;6.05;84.81;92783.72;2064877;69;20149;-81
2023/11/19 03:35:33;;;;;;;5.05;2.20;;;;;;;6.24;83.78;92780.31;2062007;69;20209;-79
2023/11/19 03:37:59;;;;;;;3.38;2.03;;;;;;;6.38;82.74;92780.66;2060992;69;20153;-79
2023/11/19 03:40:25;;;;;;;3.70;2.15;;;;;;;6.39;82.88;92790.50;2061116;69;20154;-80
2023/11/19 03:42:51;;;;;;;5.55;2.20;;;;;;;6.44;82.05;92813.94;2061656;69;20519;-80
2023/11/19 03:45:16;;;;;;;3.30;1.92;;;;;;;6.51;81.88;92825.03;2061087;69;20217;-80
2023/11/19 03:47:42;;;;;;;4.30;1.80;;;;;;;5.99;84.57;92818.84;2060934;69;20137;-80
2023/11/19 03:50:08;;;;;;;2.92;1.95;;;;;;;5.96;85.33;92829.13;2061920;69;20148;-80
2023/11/19 03:52:35;;;;;;;4.45;2.03;;;;;;;5.89;86.26;92801.25;2061896;69;20141;-80
2023/11/19 03:55:01;;;;;;;4.20;2.30;;;;;;;6.04;85.08;92789.88;2061945;69;20142;-81
2023/11/19 03:57:30;;;;;;;5.93;2.17;;;;;;;6.29;83.65;92779.28;2061776;69;20168;-80
2023/11/19 03:59:58;;;;;;;5.15;3.03;;;;;;;6.35;83.56;92768.56;2061305;69;20264;-81
2023/11/19 04:02:27;;;;;;;4.43;2.63;;;;;;;6.43;82.31;92756.53;2061614;69;20153;-81
2023/11/19 04:04:55;;;;;;;3.97;2.35;;;;;;;6.39;82.35;92747.84;2061694;69;20506;-81
2023/11/19 04:07:21;;;;;;;3.85;2.08;;;;;;;6.40;82.21;92743.72;2061297;69;20212;-81
2023/11/19 04:09:46;;;;;;;3.78;2.33;;;;;;;6.30;82.87;92763.97;2061485;69;20635;-80
2023/11/19 04:12:12;;;;;;;3.58;2.33;;;;;;;6.33;83.10;92782.41;2061112;69;20161;-79
2023/11/19 04:14:38;;;;;;;2.47;2.00;;;;;;;6.47;82.82;92801.59;2061270;69;20152;-81
2023/11/19 04:17:10;;;;;;;4.97;2.60;;;;;;;6.47;82.72;92802.34;2062048;69;20149;-80
2023/11/19 04:19:37;;;;;;;4.15;2.92;;;;;;;6.20;83.75;92801.63;2063816;69;20645;-80
2023/11/19 04:22:03;;;;;;;4.68;2.80;;;;;;;6.16;83.79;92790.09;2065013;69;20648;-80
2023/11/19 04:24:29;;;;;;;5.38;3.50;;;;;;;5.90;85.65;92797.84;2061789;69;20183;-80
2023/11/19 04:26:55;;;;;;;5.90;3.72;;;;;;;6.01;85.05;92768.72;2061401;69;20133;-79
2023/11/19 04:29:21;;;;;;;7.38;4.13;;;;;;;6.35;83.76;92795.78;2061621;69;20187;-78
2023/11/19 04:31:46;;;;;;;5.60;4.15;;;;;;;6.32;83.40;92796.94;2064908;69;20200;-79
2023/11/19 04:34:13;;;;;;;7.45;4.90;;;;;;;6.25;83.36;92789.41;2061568;69;20218;-80
2023/11/19 04:36:39;;;;;;;6.43;4.45;;;;;;;6.27;83.72;92787.50;2064850;69;20155;-80
2023/11/19 04:39:11;;;;;;;5.13;3.78;;;;;;;6.34;83.68;92792.25;2064675;69;20161;-79
2023/11/19 04:41:47;;;;;;;6.65;3.15;;;;;;;6.40;83.25;92792.00;2064728;69;20139;-79
2023/11/19 04:44:13;;;;;;;3.83;2.97;;;;;;;6.48;82.23;92783.50;2064780;69;20157;-79
2023/11/19 04:46:39;;;;;;;4.55;3.03;;;;;;;6.52;82.40;92778.94;2061437;69;20159;-80
2023/11/19 04:49:05;;;;;;;3.83;2.92;;;;;;;6.23;83.65;92787.22;2064715;69;20149;-79
2023/11/19 04:51:30;;;;;;;4.55;3.00;;;;;;;6.17;84.84;92802.75;2061718;69;20144;-79
2023/11/19 04:53:56;;;;;;;4.40;2.95;;;;;;;6.05;84.63;92794.19;2065023;69;20610;-79
2023/11/19 04:56:23;;;;;;;4.07;2.50;;;;;;;5.62;87.00;92779.59;2061731;69;20251;-79
2023/11/19 04:58:49;;;;;;;4.82;2.90;;;;;;;5.99;86.68;92766.47;2061444;69;20240;-79
2023/11/19 05:01:18;;;;;;;8.57;3.78;;;;;;;5.99;86.80;92762.94;2064867;69;20124;-79
2023/11/19 05:03:45;;;;;;;6.13;3.35;;;;;;;6.22;84.91;92729.81;2061774;69;20240;-79
2023/11/19 05:06:10;;;;;;;6.05;2.30;;;;;;;6.41;84.25;92748.72;2061555;69;20481;-80
2023/11/19 05:08:37;;;;;;;3.92;1.55;;;;;;;6.42;84.26;92761.41;2064675;69;20234;-80
2023/11/19 05:11:03;;;;;;;2.08;1.40;;;;;;;6.40;83.94;92761.22;2064446;69;20164;-79
2023/11/19 05:13:33;;;;;;;6.03;2.40;;;;;;;6.20;85.67;92771.59;2064511;69;20149;-79
2023/11/19 05:15:58;;;;;;;6.88;3.75;;;;;;;5.69;88.12;92762.00;2064454;69;20207;-79
2023/11/19 05:18:25;;;;;;;8.10;3.50;;;;;;;6.00;86.83;92773.56;2064492;69;20593;-79
2023/11/19 05:20:50;;;;;;;6.10;3.38;;;;;;;5.94;87.45;92767.47;2064778;69;20149;-79
2023/11/19 05:23:16;;;;;;;5.45;3.20;;;;;;;6.30;85.55;92782.81;2064636;69;20238;-79
2023/11/19 05:25:42;;;;;;;6.60;3.47;;;;;;;6.40;84.11;92764.03;2064404;69;20228;-79
2023/11/19 05:28:08;;;;;;;6.40;2.85;;;;;;;6.02;86.08;92770.91;2064592;69;20619;-80
2023/11/19 05:30:34;;;;;;;5.80;3.40;;;;;;;6.16;85.21;92750.97;2061418;69;20206;-80
2023/11/19 05:33:00;;;;;;;5.65;3.75;;;;;;;6.39;84.13;92756.97;2061320;69;20148;-81
2023/11/19 05:35:26;;;;;;;6.80;3.88;;;;;;;6.50;84.03;92778.03;2064159;69;20169;-79
2023/11/19 05:37:51;;;;;;;5.30;3.78;;;;;;;6.39;84.63;92776.53;2064546;69;20163;-80
2023/11/19 05:40:18;;;;;;;5.72;4.32;;;;;;;5.91;87.13;92770.66;2064440;69;20140;-80
2023/11/19 05:42:44;;;;;;;6.45;4.20;;;;;;;6.20;86.78;92768.06;2064958;69;20195;-80
2023/11/19 05:45:12;;;;;;;6.10;3.97;;;;;;;6.18;85.88;92777.00;2064769;69;20152;-79
2023/11/19 05:47:37;;;;;;;7.20;3.95;;;;;;;5.91;88.14;92768.63;2064950;69;20629;-80
2023/11/19 05:50:06;;;;;;;6.78;3.60;;;;;;;6.18;86.91;92760.25;2061559;69;20177;-80
2023/11/19 05:52:33;;;;;;;4.70;3.83;;;;;;;6.42;85.66;92763.47;2064572;69;20164;-79
2023/11/19 05:55:09;;;;;;;5.75;3.60;;;;;;;6.45;84.63;92762.28;2064803;69;20540;-79
2023/11/19 05:57:35;;;;;;;9.95;4.40;;;;;;;6.18;85.80;92779.81;2064610;69;20198;-80
2023/11/19 06:00:00;;;;;;;8.30;4.00;;;;;;;5.75;88.77;92787.63;2061357;69;20220;-80
2023/11/19 06:02:27;;;;;;;21.90;10.85;;;;;;;6.12;87.89;92796.13;2064679;69;20171;-82
2023/11/19 06:04:53;;;;;;;33.10;17.27;;;;;;;6.01;87.58;92786.22;2064862;69;20623;-80
2023/11/19 06:07:19;;;;;;;20.98;10.75;;;;;;;6.31;86.11;92795.47;2064803;69;20141;-80
2023/11/19 06:09:45;;;;;;;35.28;16.52;;;;;;;6.45;85.58;92793.78;2064830;69;20149;-81
2023/11/19 06:12:10;;;;;;;31.75;16.33;;;;;;;6.51;84.96;92796.31;2061489;69;20151;-81
2023/11/19 06:14:36;;;;;;;29.60;14.38;;;;;;;6.28;85.80;92805.03;2064799;69;20164;-82
2023/11/19 06:17:04;;;;;;;22.75;13.65;;;;;;;6.27;85.83;92795.91;2064860;69;20153;-81
2023/11/19 06:19:30;;;;;;;17.83;10.82;;;;;;;6.33;85.62;92815.22;2064681;69;20728;-80
2023/11/19 06:21:56;;;;;;;11.95;8.23;;;;;;;6.40;85.59;92822.75;2064736;69;20254;-81
2023/11/19 06:24:22;;;;;;;8.75;6.20;;;;;;;6.51;84.46;92830.63;2064839;69;20482;-82
2023/11/19 06:26:47;;;;;;;10.40;6.03;;;;;;;6.48;84.63;92831.03;2065126;69;20141;-80
2023/11/19 06:29:18;;;;;;;8.88;6.40;;;;;;;6.56;84.50;92829.59;2065224;69;20133;-80
2023/11/19 06:31:44;;;;;;;12.07;7.97;;;;;;;6.59;84.22;92836.09;2065305;69;20232;-80
2023/11/19 06:34:10;;;;;;;13.60;8.43;;;;;;;6.65;84.54;92833.78;2065490;69;20145;-80
2023/11/19 06:36:35;;;;;;;12.32;7.93;;;;;;;6.63;84.30;92842.72;2065350;69;20236;-79
2023/11/19 06:39:01;;;;;;;11.95;7.00;;;;;;;6.43;85.27;92835.56;2065323;69;20240;-79
2023/11/19 06:41:28;;;;;;;13.32;8.30;;;;;;;6.25;86.24;92834.16;2065105;69;20151;-79
2023/11/19 06:43:54;;;;;;;12.15;7.97;;;;;;;6.46;85.87;92830.88;2065381;69;20156;-80
2023/11/19 06:46:21;;;;;;;10.02;6.75;;;;;;;6.11;87.70;92814.22;2062025;69;20161;-80
2023/11/19 06:48:47;;;;;;;7.75;5.57;;;;;;;6.28;87.35;92797.38;2065374;69;20157;-80
2023/11/19 06:51:12;;;;;;;8.85;4.60;;;;;;;6.53;86.19;92816.78;2065337;69;20156;-80
2023/11/19 06:53:41;;;;;;;3.58;2.50;;;;;;;6.51;85.25;92819.44;2065238;69;20141;-81
2023/11/19 06:56:27;;;;;;;3.28;2.10;;;;;;;6.61;85.74;92831.41;2062002;69;20167;-79
2023/11/19 06:58:53;;;;;;;9.70;5.95;;;;;;;6.49;85.98;92841.63;2065164;69;20621;-79
2023/11/19 07:01:19;;;;;;;12.85;7.97;;;;;;;6.52;85.73;92846.06;2065403;69;20220;-79
2023/11/19 07:03:48;;;;;;;14.15;7.47;;;;;;;6.57;86.20;92863.91;2065325;69;20524;-78
2023/11/19 07:06:14;;;;;;;10.20;6.90;;;;;;;6.76;84.79;92863.25;2065416;69;20141;-81
2023/11/19 07:08:44;;;;;;;9.60;6.13;;;;;;;6.82;84.67;92853.25;2065206;69;20225;-80
2023/11/19 07:11:11;;;;;;;7.00;4.78;;;;;;;6.76;85.02;92846.47;2065124;69;20601;-81
2023/11/19 07:13:37;;;;;;;8.70;5.00;;;;;;;6.75;85.21;92851.34;2065257;69;20177;-81
2023/11/19 07:16:03;;;;;;;15.95;9.95;;;;;;;6.81;85.23;92859.44;2065150;69;20160;-80
2023/11/19 07:18:29;;;;;;;14.07;9.23;;;;;;;6.51;86.13;92844.59;2065168;69;20185;-79
2023/11/19 07:20:55;;;;;;;11.43;8.18;;;;;;;6.86;84.96;92870.38;2065209;69;20149;-79
2023/11/19 07:23:21;;;;;;;8.77;6.32;;;;;;;6.85;85.22;92865.38;2065088;69;20161;-80
2023/11/19 07:25:47;;;;;;;8.05;5.85;;;;;;;6.86;85.02;92861.97;2065059;69;20168;-80
2023/11/19 07:28:14;;;;;;;8.15;5.40;;;;;;;6.90;84.55;92872.00;2065134;69;20612;-81
2023/11/19 07:30:39;;;;;;;8.07;5.75;;;;;;;6.91;85.14;92888.22;2065221;69;20501;-81
2023/11/19 07:33:05;;;;;;;9.70;6.75;;;;;;;6.53;87.38;92894.34;2065152;69;20619;-81
2023/11/19 07:35:32;;;;;;;15.18;9.90;;;;;;;6.88;85.26;92915.31;2065092;69;20153;-81
2023/11/19 07:37:58;;;;;;;15.35;10.18;;;;;;;6.99;84.80;92910.50;2065182;69;20149;-81
2023/11/19 07:40:24;;;;;;;19.63;12.00;;;;;;;7.05;84.13;92906.09;2065013;69;20152;-81
2023/11/19 07:42:50;;;;;;;41.67;21.92;;;;;;;6.93;85.15;92893.97;2065075;69;20147;-81
2023/11/19 07:45:17;;;;;;;36.63;19.33;;;;;;;7.07;84.92;92883.13;2065081;69;20173;-81
2023/11/19 07:47:46;;;;;;;31.17;16.58;;;;;;;6.99;84.76;92876.91;2065144;69;20235;-81
2023/11/19 07:50:14;;;;;;;31.05;20.17;;;;;;;7.18;84.54;92871.34;2065199;69;20133;-80
2023/11/19 07:52:39;;;;;;;8.32;4.60;;;;;;;7.14;84.72;92871.06;2065050;69;20141;-80
2023/11/19 07:55:05;;;;;;;3.60;1.90;;;;;;;7.26;84.29;92862.84;2065168;69;20175;-81
2023/11/19 07:57:31;;;;;;;3.67;2.10;;;;;;;7.40;84.39;92880.72;2064958;69;20193;-81
2023/11/19 08:00:01;;;;;;;2.80;1.60;;;;;;;7.41;84.80;92873.78;2065108;69;20169;-81
2023/11/19 08:02:27;;;;;;;17.52;12.23;;;;;;;7.38;84.17;92881.31;2065512;69;20161;-82
2023/11/19 08:04:54;;;;;;;26.50;17.40;;;;;;;7.46;83.80;92872.03;2065032;69;20141;-81
2023/11/19 08:07:21;;;;;;;17.75;10.40;;;;;;;7.38;84.26;92858.91;2065269;69;20232;-80
2023/11/19 08:09:47;;;;;;;9.30;6.32;;;;;;;7.58;83.98;92884.88;2065018;69;20149;-81
2023/11/19 08:12:14;;;;;;;6.55;4.03;;;;;;;7.52;84.80;92878.09;2064910;69;20144;-81
2023/11/19 08:14:40;;;;;;;5.28;3.53;;;;;;;7.11;86.02;92883.44;2065055;69;20535;-81
2023/11/19 08:17:06;;;;;;;5.80;4.38;;;;;;;7.34;86.13;92886.59;2061695;69;20611;-80
2023/11/19 08:19:32;;;;;;;10.50;6.20;;;;;;;7.23;87.14;92895.53;2064935;69;20619;-80
2023/11/19 08:21:58;;;;;;;7.15;3.97;;;;;;;7.37;86.52;92890.28;2064984;69;20172;-81
2023/11/19 08:24:23;;;;;;;6.45;3.60;;;;;;;7.61;84.78;92896.97;2065065;69;20170;-80
2023/11/19 08:26:49;;;;;;;5.10;3.72;;;;;;;7.71;83.61;92900.53;2064851;69;20129;-80
2023/11/19 08:29:15;;;;;;;4.82;3.50;;;;;;;7.46;86.02;92900.03;2065092;69;20164;-80
2023/11/19 08:31:40;;;;;;;7.60;4.00;;;;;;;7.57;85.66;92891.81;2065102;69;20132;-80
2023/11/19 08:34:08;;;;;;;7.90;4.93;;;;;;;7.49;86.08;92907.28;2061743;69;20169;-79
2023/11/19 08:36:34;;;;;;;6.47;5.18;;;;;;;7.47;86.56;92899.47;2064959;69;20583;-79
2023/11/19 08:39:00;;;;;;;7.65;5.28;;;;;;;7.93;84.81;92909.84;2064847;69;20145;-79
2023/11/19 08:41:27;;;;;;;10.80;6.70;;;;;;;8.11;82.81;92905.59;2064864;69;20211;-80
2023/11/19 08:43:53;;;;;;;8.13;4.40;;;;;;;8.12;83.24;92889.50;2065135;69;20141;-79
2023/11/19 08:46:18;;;;;;;11.45;5.63;;;;;;;8.27;83.12;92896.88;2064924;69;20196;-80
2023/11/19 08:48:44;;;;;;;9.68;6.22;;;;;;;8.39;82.63;92883.75;2064949;69;20679;-80
2023/11/19 08:51:10;;;;;;;10.40;6.18;;;;;;;8.33;83.30;92892.41;2064964;69;20149;-79
2023/11/19 08:53:36;;;;;;;10.35;6.60;;;;;;;8.36;84.22;92887.69;2065015;69;20145;-80
2023/11/19 08:56:02;;;;;;;8.95;6.68;;;;;;;8.34;84.11;92891.09;2061617;69;20233;-80
2023/11/19 08:58:28;;;;;;;13.45;7.70;;;;;;;8.43;83.89;92889.66;2065054;69;20136;-80
2023/11/19 09:00:55;;;;;;;20.52;14.27;;;;;;;8.22;85.22;92876.19;2064997;69;20153;-80
2023/11/19 09:03:21;;;;;;;24.27;15.75;;;;;;;8.60;84.70;92892.25;2064978;69;20615;-80
2023/11/19 09:05:47;;;;;;;21.77;12.98;;;;;;;8.82;84.44;92884.69;2064999;69;20169;-80
2023/11/19 09:08:12;;;;;;;19.27;13.55;;;;;;;8.88;83.59;92890.72;2064955;69;20218;-80
2023/11/19 09:10:38;;;;;;;16.70;11.40;;;;;;;8.90;83.88;92888.06;2064862;69;20211;-81
2023/11/19 09:13:05;;;;;;;14.05;9.43;;;;;;;9.20;83.98;92888.66;2065916;69;20235;-80
2023/11/19 09:15:30;;;;;;;15.07;10.57;;;;;;;9.56;83.08;92895.31;2068331;69;20156;-82
2023/11/19 09:17:56;;;;;;;14.35;9.10;;;;;;;8.75;85.33;92888.41;2068440;69;20606;-81
2023/11/19 09:20:22;;;;;;;13.63;8.88;;;;;;;8.55;87.56;92909.41;2068288;69;20176;-83
2023/11/19 09:22:48;;;;;;;11.63;6.88;;;;;;;8.81;85.38;92902.84;2068298;69;20145;-81
2023/11/19 09:25:16;;;;;;;8.82;6.25;;;;;;;9.28;84.16;92900.47;2064861;69;20282;-80
2023/11/19 09:27:43;;;;;;;13.52;7.47;;;;;;;9.52;83.69;92912.63;2068346;69;20244;-80
2023/11/19 09:30:09;;;;;;;13.63;8.57;;;;;;;9.71;84.72;92911.78;2068330;69;20152;-80
2023/11/19 09:32:37;;;;;;;12.60;7.93;;;;;;;9.92;83.18;92888.56;2068373;69;20159;-81
2023/11/19 09:35:03;;;;;;;5.85;4.35;;;;;;;10.47;82.11;92880.91;2068371;69;20164;-81
2023/11/19 09:37:29;;;;;;;6.32;3.60;;;;;;;10.40;82.51;92871.34;2068255;69;20588;-81
2023/11/19 09:39:55;;;;;;;5.35;3.30;;;;;;;10.70;81.84;92857.72;2068208;69;20206;-81
2023/11/19 09:42:20;;;;;;;12.55;6.55;;;;;;;10.48;82.16;92864.75;2068145;69;20151;-81
2023/11/19 09:44:47;;;;;;;8.40;5.07;;;;;;;10.38;81.81;92857.13;2068294;69;20167;-82
2023/11/19 09:47:14;;;;;;;6.65;4.55;;;;;;;10.87;81.01;92863.00;2068320;69;20145;-81
2023/11/19 09:49:40;;;;;;;5.55;4.05;;;;;;;11.22;81.08;92842.56;2068203;69;20190;-81
2023/11/19 09:52:06;;;;;;;6.45;4.53;;;;;;;11.69;79.91;92854.56;2068212;69;20247;-81
2023/11/19 09:54:32;;;;;;;6.72;4.15;;;;;;;12.06;78.69;92865.19;2068382;69;20584;-81
2023/11/19 09:57:03;;;;;;;5.43;2.90;;;;;;;12.14;77.76;92847.97;2068053;69;20603;-81
2023/11/19 09:59:33;;;;;;;5.43;3.42;;;;;;;12.90;77.78;92870.59;2068201;69;20141;-82
2023/11/19 10:01:59;;;;;;;7.60;4.10;;;;;;;13.30;76.49;92867.81;2068769;69;20155;-81
2023/11/19 10:04:29;;;;;;;6.78;3.30;;;;;;;12.65;73.14;92843.13;2068699;69;20176;-82
2023/11/19 10:06:55;;;;;;;5.25;3.67;;;;;;;12.18;76.98;92845.41;2068698;69;20160;-81
2023/11/19 10:09:20;;;;;;;5.55;4.30;;;;;;;12.45;75.56;92856.81;2068684;69;20669;-82
2023/11/19 10:11:46;;;;;;;7.30;4.32;;;;;;;12.40;75.80;92831.81;2068605;69;20750;-82
2023/11/19 10:14:13;;;;;;;7.60;4.30;;;;;;;13.16;75.46;92816.88;2068663;69;20230;-81
2023/11/19 10:16:39;;;;;;;6.68;4.45;;;;;;;14.62;74.57;92823.56;2068694;69;20188;-82
2023/11/19 10:19:04;;;;;;;3.10;2.38;;;;;;;15.85;72.57;92823.44;2068618;69;20176;-81
2023/11/19 10:21:33;;;;;;;4.57;3.47;;;;;;;15.38;69.52;92816.41;2068752;69;20179;-81
2023/11/19 10:24:02;;;;;;;6.90;3.70;;;;;;;14.90;70.08;92824.16;2072012;69;20148;-83
2023/11/19 10:26:28;;;;;;;5.50;3.90;;;;;;;14.33;71.39;92823.50;2070544;69;20599;-81
2023/11/19 10:28:55;;;;;;;5.80;3.58;;;;;;;15.43;68.27;92820.16;2068894;69;20125;-81
2023/11/19 10:31:25;;;;;;;7.40;5.45;;;;;;;15.40;67.99;92832.81;2068650;69;20160;-82
2023/11/19 10:33:51;;;;;;;4.22;2.65;;;;;;;15.18;67.92;92821.91;2068625;69;20180;-81
2023/11/19 10:36:17;;;;;;;3.05;2.33;;;;;;;15.04;67.19;92821.25;2068625;69;20172;-81
2023/11/19 10:38:53;;;;;;;6.32;2.92;;;;;;;14.62;68.94;92820.00;2068582;69;20132;-81
2023/11/19 10:41:30;;;;;;;7.13;3.42;;;;;;;14.60;69.29;92817.78;2068421;69;20519;-81
2023/11/19 10:43:56;;;;;;;6.53;4.13;;;;;;;14.28;69.59;92819.75;2065207;69;20234;-80
2023/11/19 10:46:23;;;;;;;4.75;3.33;;;;;;;13.91;71.28;92800.97;2068536;69;20598;-82
2023/11/19 10:48:49;;;;;;;6.10;3.20;;;;;;;14.38;72.03;92796.84;2068584;69;20183;-83
2023/11/19 10:51:23;;;;;;;5.70;3.28;;;;;;;15.00;71.60;92787.78;2068743;69;20497;-83
2023/11/19 10:53:50;;;;;;;4.28;2.60;;;;;;;14.24;69.62;92788.41;2068681;69;20528;-83
2023/11/19 10:56:21;;;;;;;5.88;4.18;;;;;;;16.39;67.36;92788.09;2068497;69;20275;-83
2023/11/19 10:58:49;;;;;;;5.53;3.78;;;;;;;14.99;68.62;92777.09;2068715;69;20238;-83
2023/11/19 11:01:26;;;;;;;5.32;3.90;;;;;;;15.37;69.74;92788.69;2065250;69;20149;-83
2023/11/19 11:03:56;;;;;;;7.07;4.78;;;;;;;14.16;71.21;92788.03;2068669;69;20236;-83
2023/11/19 11:06:23;;;;;;;6.00;3.95;;;;;;;13.50;73.10;92783.28;2068513;69;20156;-83
2023/11/19 11:08:48;;;;;;;5.82;4.13;;;;;;;13.47;73.97;92771.91;2068697;69;20292;-83
2023/11/19 11:11:20;;;;;;;6.40;3.70;;;;;;;14.12;72.18;92780.06;2068455;69;20177;-83
2023/11/19 11:13:47;;;;;;;7.10;4.72;;;;;;;14.58;71.40;92786.53;2068561;69;20151;-83
2023/11/19 11:16:14;;;;;;;7.30;3.67;;;;;;;14.79;70.38;92785.38;2065294;69;20551;-83
2023/11/19 11:18:40;;;;;;;6.43;3.72;;;;;;;13.58;72.96;92786.53;2068862;69;20244;-83
2023/11/19 11:21:16;;;;;;;8.77;5.28;;;;;;;13.33;74.77;92787.38;2068535;69;20224;-83
2023/11/19 11:24:16;;;;;;;4.70;3.75;;;;;;;13.77;73.73;92779.72;2068591;69;20133;-83
2023/11/19 11:27:13;;;;;;;5.82;3.78;;;;;;;13.89;73.22;92769.75;2068456;69;20260;-82
2023/11/19 11:29:59;;;;;;;8.73;3.63;;;;;;;13.84;74.61;92761.69;2068920;69;20144;-81
2023/11/19 11:32:24;;;;;;;2.97;2.15;;;;;;;13.75;73.97;92757.72;2068790;69;20125;-82
2023/11/19 11:35:16;;;;;;;4.72;2.42;;;;;;;14.03;75.39;92758.38;2068533;69;20144;-82
2023/11/19 11:37:49;;;;;;;5.57;2.40;;;;;;;14.06;74.76;92748.59;2065164;69;20251;-82
2023/11/19 11:40:15;;;;;;;3.22;2.30;;;;;;;13.76;75.70;92736.53;2068455;69;20152;-82
2023/11/19 11:42:42;;;;;;;2.80;2.00;;;;;;;13.88;75.92;92754.13;2065172;69;20191;-82